createdAt,value
2019-03-19T00:00:22.761Z,2.47
2019-03-19T00:02:52.247Z,1.52
2019-03-19T00:05:21.831Z,2.47
2019-03-19T00:07:51.346Z,2.15
2019-03-19T00:10:20.832Z,1.87
2019-03-19T00:12:50.401Z,1.90
2019-03-19T00:15:19.979Z,2.27
2019-03-19T00:17:49.488Z,2.05
2019-03-19T00:20:19.048Z,1.95
2019-03-19T00:22:48.560Z,2.02
2019-03-19T00:25:29.061Z,1.75
2019-03-19T00:27:49.281Z,1.62
2019-03-19T00:30:19.422Z,1.35
2019-03-19T00:32:48.936Z,1.80
2019-03-19T00:35:18.526Z,1.95
2019-03-19T00:37:48.017Z,2.12
2019-03-19T00:40:17.771Z,2.90
2019-03-19T00:42:47.267Z,1.75
2019-03-19T00:45:16.924Z,2.65
2019-03-19T00:47:46.577Z,2.45
2019-03-19T00:50:16.870Z,2.75
2019-03-19T00:52:46.385Z,2.40
2019-03-19T00:55:16.035Z,2.62
2019-03-19T00:57:45.542Z,2.30
2019-03-19T01:00:21.121Z,3.20
2019-03-19T01:02:50.626Z,2.08
2019-03-19T01:05:20.121Z,2.17
2019-03-19T01:07:49.629Z,2.90
2019-03-19T01:10:19.251Z,2.42
2019-03-19T01:12:49.852Z,1.72
2019-03-19T01:15:19.435Z,1.85
2019-03-19T01:17:49.002Z,2.58
2019-03-19T01:20:18.608Z,2.05
2019-03-19T01:22:48.136Z,1.80
2019-03-19T01:25:18.808Z,1.82
2019-03-19T01:27:48.415Z,2.37
2019-03-19T01:30:18.461Z,1.60
2019-03-19T01:32:48.091Z,1.80
2019-03-19T01:35:17.681Z,1.70
2019-03-19T01:37:47.245Z,2.40
2019-03-19T01:40:16.831Z,2.60
2019-03-19T01:42:46.355Z,1.65
2019-03-19T01:45:15.907Z,1.67
2019-03-19T01:47:45.395Z,1.87
2019-03-19T01:50:16.122Z,2.05
2019-03-19T01:52:45.694Z,2.10
2019-03-19T01:55:16.100Z,2.20
2019-03-19T01:57:45.637Z,2.08
2019-03-19T02:00:19.482Z,2.20
2019-03-19T02:02:48.967Z,2.00
2019-03-19T02:05:18.534Z,1.82
2019-03-19T02:07:48.104Z,2.60
2019-03-19T02:10:17.699Z,1.55
2019-03-19T02:12:47.206Z,1.95
2019-03-19T02:15:18.608Z,1.57
2019-03-19T02:17:48.162Z,1.80
2019-03-19T02:20:18.879Z,2.22
2019-03-19T02:22:48.380Z,2.50
2019-03-19T02:25:17.864Z,2.40
2019-03-19T02:27:47.394Z,2.20
2019-03-19T02:30:17.748Z,1.95
2019-03-19T02:32:47.260Z,1.57
2019-03-19T02:35:16.838Z,2.10
2019-03-19T02:37:46.348Z,1.70
2019-03-19T02:40:18.635Z,2.40
2019-03-19T02:42:48.181Z,1.45
2019-03-19T02:45:18.231Z,1.75
2019-03-19T02:47:47.770Z,1.82
2019-03-19T02:50:18.361Z,1.50
2019-03-19T02:52:47.922Z,2.10
2019-03-19T02:55:17.438Z,3.52
2019-03-19T02:57:47.013Z,1.55
2019-03-19T03:00:19.831Z,1.50
2019-03-19T03:02:49.350Z,2.00
2019-03-19T03:05:21.446Z,2.58
2019-03-19T03:07:51.103Z,1.62
2019-03-19T03:10:20.637Z,1.75
2019-03-19T03:12:50.136Z,1.85
2019-03-19T03:15:19.721Z,1.60
2019-03-19T03:17:49.239Z,1.50
2019-03-19T03:20:18.800Z,1.52
2019-03-19T03:22:48.374Z,2.20
2019-03-19T03:25:18.717Z,1.80
2019-03-19T03:27:48.384Z,2.12
2019-03-19T03:30:22.986Z,1.22
2019-03-19T03:32:52.551Z,2.05
2019-03-19T03:35:22.194Z,2.17
2019-03-19T03:37:51.818Z,3.10
2019-03-19T03:40:21.561Z,1.90
2019-03-19T03:42:51.168Z,1.40
2019-03-19T03:45:21.411Z,2.10
2019-03-19T03:47:50.897Z,1.15
2019-03-19T03:50:20.616Z,2.00
2019-03-19T03:52:50.312Z,1.82
2019-03-19T03:55:21.026Z,1.30
2019-03-19T03:57:50.589Z,2.40
2019-03-19T04:00:21.697Z,1.95
2019-03-19T04:03:10.580Z,2.08
2019-03-19T04:05:40.080Z,1.35
2019-03-19T04:08:09.554Z,2.75
2019-03-19T04:10:39.186Z,3.10
2019-03-19T04:13:08.692Z,1.85
2019-03-19T04:15:38.308Z,3.45
2019-03-19T04:18:07.871Z,2.27
2019-03-19T04:20:37.375Z,2.15
2019-03-19T04:23:07.130Z,1.82
2019-03-19T04:25:36.806Z,2.55
2019-03-19T04:28:06.379Z,2.22
2019-03-19T04:30:35.953Z,2.40
2019-03-19T04:33:05.810Z,2.08
2019-03-19T04:35:35.319Z,2.17
2019-03-19T04:38:04.888Z,2.30
2019-03-19T04:40:34.398Z,2.40
2019-03-19T04:43:03.981Z,2.35
2019-03-19T04:45:33.464Z,2.00
2019-03-19T04:48:03.678Z,2.50
2019-03-19T04:50:33.359Z,3.05
2019-03-19T04:53:02.882Z,2.30
2019-03-19T04:55:32.379Z,2.83
2019-03-19T04:58:01.954Z,2.45
2019-03-19T05:00:31.530Z,2.65
2019-03-19T05:03:01.032Z,2.50
2019-03-19T05:05:30.519Z,2.30
2019-03-19T05:08:00.035Z,2.47
2019-03-19T05:10:29.525Z,1.92
2019-03-19T05:13:00.794Z,2.77
2019-03-19T05:15:30.505Z,3.30
2019-03-19T05:18:00.033Z,2.47
2019-03-19T05:20:29.509Z,2.08
2019-03-19T05:22:59.019Z,2.10
2019-03-19T05:25:28.524Z,2.15
2019-03-19T05:27:58.280Z,2.58
2019-03-19T05:30:27.868Z,2.60
2019-03-19T05:32:57.365Z,3.37
2019-03-19T05:35:26.958Z,2.80
2019-03-19T05:37:56.453Z,3.30
2019-03-19T05:40:26.038Z,2.52
2019-03-19T05:42:55.521Z,3.17
2019-03-19T05:45:25.102Z,2.45
2019-03-19T05:47:54.663Z,2.22
2019-03-19T05:50:24.706Z,2.60
2019-03-19T05:52:54.325Z,2.83
2019-03-19T05:55:23.836Z,2.67
2019-03-19T05:57:53.352Z,2.90
2019-03-19T06:00:30.888Z,2.40
2019-03-19T06:03:00.492Z,2.67
2019-03-19T06:05:29.990Z,3.45
2019-03-19T06:07:59.593Z,3.02
2019-03-19T06:10:29.131Z,1.70
2019-03-19T06:13:01.218Z,3.42
2019-03-19T06:15:29.877Z,2.25
2019-03-19T06:17:59.373Z,3.67
2019-03-19T06:20:28.860Z,2.72
2019-03-19T06:22:58.372Z,2.70
2019-03-19T06:25:27.934Z,3.00
2019-03-19T06:28:00.792Z,3.37
2019-03-19T06:30:28.662Z,3.50
2019-03-19T06:32:58.183Z,2.87
2019-03-19T06:35:27.681Z,3.77
2019-03-19T06:37:57.242Z,4.30
2019-03-19T06:40:26.734Z,4.58
2019-03-19T06:42:56.219Z,3.52
2019-03-19T06:45:25.735Z,4.75
2019-03-19T06:47:55.212Z,3.12
2019-03-19T06:50:24.797Z,2.87
2019-03-19T06:52:54.546Z,4.33
2019-03-19T06:55:24.003Z,4.75
2019-03-19T06:57:53.883Z,3.80
2019-03-19T07:00:24.579Z,3.22
2019-03-19T07:02:54.230Z,4.65
2019-03-19T07:05:24.138Z,5.87
2019-03-19T07:07:53.792Z,3.85
2019-03-19T07:10:23.551Z,4.50
2019-03-19T07:12:53.178Z,5.70
2019-03-19T07:15:23.787Z,5.65
2019-03-19T07:17:53.341Z,6.00
2019-03-19T07:20:30.127Z,3.55
2019-03-19T07:22:59.659Z,5.65
2019-03-19T07:25:29.142Z,4.90
2019-03-19T07:28:00.195Z,4.60
2019-03-19T07:30:29.867Z,4.22
2019-03-19T07:32:59.430Z,4.70
2019-03-19T07:35:28.940Z,5.50
2019-03-19T07:37:58.466Z,7.15
2019-03-19T07:40:27.969Z,6.00
2019-03-19T07:42:57.470Z,5.15
2019-03-19T07:45:27.135Z,5.62
2019-03-19T07:47:56.692Z,5.28
2019-03-19T07:50:26.268Z,5.62
2019-03-19T07:52:55.762Z,4.45
2019-03-19T07:55:25.266Z,4.85
2019-03-19T07:57:54.865Z,5.92
2019-03-19T08:00:24.639Z,5.00
2019-03-19T08:02:54.225Z,5.30
2019-03-19T08:05:32.548Z,4.90
2019-03-19T08:07:55.014Z,5.40
2019-03-19T08:10:24.572Z,4.07
2019-03-19T08:12:54.048Z,4.80
2019-03-19T08:15:23.736Z,4.20
2019-03-19T08:17:53.222Z,5.03
2019-03-19T08:20:22.798Z,4.57
2019-03-19T08:22:52.294Z,4.80
2019-03-19T08:25:21.891Z,4.00
2019-03-19T08:27:51.418Z,4.97
2019-03-19T08:30:24.600Z,4.57
2019-03-19T08:32:53.716Z,5.50
2019-03-19T08:35:23.292Z,4.70
2019-03-19T08:37:52.799Z,4.70
2019-03-19T08:40:22.721Z,4.23
2019-03-19T08:42:52.208Z,4.83
2019-03-19T08:45:26.784Z,4.00
2019-03-19T08:47:56.291Z,5.80
2019-03-19T08:50:25.993Z,4.50
2019-03-19T08:52:55.806Z,4.80
2019-03-19T08:55:25.459Z,4.50
2019-03-19T08:57:54.947Z,5.20
2019-03-19T09:00:26.823Z,5.10
2019-03-19T09:02:56.319Z,4.57
2019-03-19T09:05:25.839Z,3.93
2019-03-19T09:07:55.321Z,5.13
2019-03-19T09:10:24.802Z,4.20
2019-03-19T09:12:54.332Z,4.60
2019-03-19T09:15:26.519Z,4.20
2019-03-19T09:17:56.003Z,4.33
2019-03-19T09:20:25.518Z,3.87
2019-03-19T09:22:55.097Z,4.27
2019-03-19T09:25:24.662Z,5.00
2019-03-19T09:27:54.176Z,4.33
2019-03-19T09:30:25.071Z,4.40
2019-03-19T09:32:54.626Z,4.07
2019-03-19T09:35:26.126Z,3.53
2019-03-19T09:37:58.895Z,3.40
2019-03-19T09:40:26.613Z,3.13
2019-03-19T09:42:56.201Z,3.80
2019-03-19T09:45:25.836Z,3.97
2019-03-19T09:47:55.390Z,3.30
2019-03-19T09:50:26.917Z,3.50
2019-03-19T09:52:56.417Z,3.03
2019-03-19T09:55:25.957Z,2.50
2019-03-19T09:57:55.489Z,4.00
2019-03-19T10:00:25.348Z,3.33
2019-03-19T10:02:54.901Z,2.73
2019-03-19T10:05:24.408Z,3.10
2019-03-19T10:07:55.702Z,2.07
2019-03-19T10:10:25.834Z,3.20
2019-03-19T10:12:55.379Z,2.10
2019-03-19T10:15:25.165Z,2.93
2019-03-19T10:17:54.699Z,2.57
2019-03-19T10:20:25.901Z,2.50
2019-03-19T10:22:55.476Z,2.10
2019-03-19T10:25:24.968Z,2.03
2019-03-19T10:27:54.618Z,2.20
2019-03-19T10:30:25.208Z,2.43
2019-03-19T10:32:54.780Z,2.10
2019-03-19T10:35:24.281Z,2.33
2019-03-19T10:37:53.876Z,1.97
2019-03-19T10:40:23.843Z,3.07
2019-03-19T10:42:53.396Z,2.00
2019-03-19T10:45:24.508Z,2.20
2019-03-19T10:47:54.115Z,1.20
2019-03-19T10:50:26.210Z,1.80
2019-03-19T10:52:55.845Z,1.83
2019-03-19T10:55:25.350Z,1.27
2019-03-19T10:57:54.935Z,1.50
2019-03-19T11:00:25.553Z,1.67
2019-03-19T11:02:55.294Z,1.30
2019-03-19T11:05:25.805Z,1.43
2019-03-19T11:07:55.457Z,1.47
2019-03-19T11:10:25.192Z,1.40
2019-03-19T11:12:54.640Z,1.93
2019-03-19T11:15:31.388Z,1.50
2019-03-19T11:18:00.023Z,1.63
2019-03-19T11:20:29.629Z,1.30
2019-03-19T11:22:59.179Z,1.30
2019-03-19T11:25:33.233Z,1.80
2019-03-19T11:28:02.748Z,1.57
2019-03-19T11:30:32.949Z,1.70
2019-03-19T11:33:02.586Z,1.80
2019-03-19T11:35:32.166Z,1.40
2019-03-19T11:38:01.649Z,2.00
2019-03-19T11:40:31.159Z,1.60
2019-03-19T11:43:02.189Z,1.87
2019-03-19T11:45:31.821Z,1.50
2019-03-19T11:48:01.320Z,3.40
2019-03-19T11:50:34.001Z,2.00
2019-03-19T11:53:04.924Z,1.67
2019-03-19T11:55:34.444Z,1.50
2019-03-19T11:58:04.051Z,1.83
2019-03-19T12:00:47.400Z,1.70
2019-03-19T12:03:16.904Z,1.90
2019-03-19T12:05:46.470Z,1.63
2019-03-19T12:08:15.965Z,1.80
2019-03-19T12:10:45.549Z,1.60
2019-03-19T12:13:15.051Z,1.87
2019-03-19T12:15:44.560Z,1.87
2019-03-19T12:18:14.069Z,1.47
2019-03-19T12:20:43.556Z,2.07
2019-03-19T12:23:13.066Z,1.73
2019-03-19T12:25:42.566Z,2.17
2019-03-19T12:28:12.109Z,1.70
2019-03-19T12:30:41.593Z,1.90
2019-03-19T12:33:11.106Z,1.80
2019-03-19T12:35:40.674Z,1.47
2019-03-19T12:38:10.233Z,1.30
2019-03-19T12:40:39.758Z,1.60
2019-03-19T12:43:09.271Z,1.60
2019-03-19T12:45:38.787Z,1.63
2019-03-19T12:48:08.261Z,1.50
2019-03-19T12:50:37.770Z,1.87
2019-03-19T12:53:07.279Z,1.80
2019-03-19T12:55:36.776Z,1.60
2019-03-19T12:58:06.791Z,2.17
2019-03-19T13:00:36.347Z,1.80
2019-03-19T13:03:06.261Z,2.10
2019-03-19T13:05:35.844Z,1.73
2019-03-19T13:08:05.516Z,1.37
2019-03-19T13:10:35.046Z,2.00
2019-03-19T13:13:05.003Z,1.50
2019-03-19T13:15:34.571Z,1.70
2019-03-19T13:18:04.202Z,2.10
2019-03-19T13:20:33.714Z,1.50
2019-03-19T13:23:03.309Z,2.00
2019-03-19T13:25:32.813Z,2.30
2019-03-19T13:28:02.331Z,1.47
2019-03-19T13:30:44.583Z,1.73
2019-03-19T13:33:06.336Z,1.83
2019-03-19T13:35:35.867Z,1.73
2019-03-19T13:38:05.656Z,1.97
2019-03-19T13:40:35.144Z,1.60
2019-03-19T13:43:04.822Z,1.70
2019-03-19T13:45:34.379Z,1.63
2019-03-19T13:48:03.932Z,1.73
2019-03-19T13:50:33.426Z,1.60
2019-03-19T13:53:02.991Z,1.53
2019-03-19T13:55:32.556Z,1.40
2019-03-19T13:58:02.073Z,1.53
2019-03-19T14:00:31.568Z,1.83
2019-03-19T14:03:01.074Z,2.10
2019-03-19T14:05:30.592Z,2.30
2019-03-19T14:08:00.091Z,1.83
2019-03-19T14:10:29.588Z,1.73
2019-03-19T14:12:59.866Z,1.90
2019-03-19T14:15:29.424Z,1.60
2019-03-19T14:17:59.019Z,1.80
2019-03-19T14:20:28.621Z,2.03
2019-03-19T14:22:58.108Z,1.80
2019-03-19T14:25:27.607Z,1.70
2019-03-19T14:27:57.108Z,2.13
2019-03-19T14:30:27.250Z,1.90
2019-03-19T14:32:56.816Z,1.83
2019-03-19T14:35:36.594Z,1.90
2019-03-19T14:37:57.566Z,2.13
2019-03-19T14:40:27.893Z,1.93
2019-03-19T14:43:01.034Z,1.57
2019-03-19T14:45:28.697Z,2.10
2019-03-19T14:47:58.187Z,1.63
2019-03-19T14:50:28.059Z,1.50
2019-03-19T14:52:57.646Z,1.90
2019-03-19T14:55:27.123Z,1.67
2019-03-19T14:57:56.648Z,1.53
2019-03-19T15:00:26.288Z,1.97
2019-03-19T15:02:55.799Z,1.90
2019-03-19T15:05:25.327Z,2.50
2019-03-19T15:07:54.941Z,1.57
2019-03-19T15:10:25.184Z,2.00
2019-03-19T15:12:54.785Z,1.80
2019-03-19T15:15:24.297Z,2.40
2019-03-19T15:17:53.811Z,1.93
2019-03-19T15:20:27.875Z,1.90
2019-03-19T15:22:57.462Z,2.30
2019-03-19T15:25:27.064Z,2.30
2019-03-19T15:27:56.582Z,2.30
2019-03-19T15:30:26.155Z,1.87
2019-03-19T15:32:55.662Z,2.00
2019-03-19T15:35:25.171Z,2.67
2019-03-19T15:37:54.659Z,2.00
2019-03-19T15:40:24.146Z,2.40
2019-03-19T15:42:53.697Z,2.23
2019-03-19T15:45:29.504Z,2.13
2019-03-19T15:47:59.182Z,2.30
2019-03-19T15:50:28.812Z,2.40
2019-03-19T15:52:58.316Z,2.50
2019-03-19T15:55:27.827Z,3.12
2019-03-19T15:57:57.336Z,2.67
2019-03-19T16:00:26.978Z,2.67
2019-03-19T16:02:56.617Z,2.47
2019-03-19T16:05:26.203Z,2.20
2019-03-19T16:07:55.685Z,2.13
2019-03-19T16:10:25.253Z,2.20
2019-03-19T16:12:54.863Z,2.10
2019-03-19T16:15:24.462Z,1.80
2019-03-19T16:17:54.029Z,2.80
2019-03-19T16:20:24.206Z,1.83
2019-03-19T16:22:53.689Z,2.27
2019-03-19T16:25:23.244Z,2.77
2019-03-19T16:27:52.827Z,2.67
2019-03-19T16:30:43.297Z,2.60
2019-03-19T16:33:12.803Z,1.82
2019-03-19T16:35:43.949Z,3.60
2019-03-19T16:38:13.509Z,3.33
2019-03-19T16:40:43.015Z,2.80
2019-03-19T16:43:12.636Z,2.70
2019-03-19T16:45:42.191Z,2.20
2019-03-19T16:48:11.668Z,2.30
2019-03-19T16:50:41.253Z,2.95
2019-03-19T16:53:10.802Z,2.80
2019-03-19T16:55:40.275Z,2.75
2019-03-19T16:58:09.926Z,3.12
2019-03-19T17:00:39.561Z,3.00
2019-03-19T17:03:09.117Z,3.67
2019-03-19T17:05:38.691Z,3.08
2019-03-19T17:08:08.199Z,3.00
2019-03-19T17:10:37.709Z,3.25
2019-03-19T17:13:07.214Z,3.52
2019-03-19T17:15:36.814Z,4.78
2019-03-19T17:18:06.510Z,6.25
2019-03-19T17:20:35.988Z,5.97
2019-03-19T17:23:05.555Z,5.00
2019-03-19T17:25:35.199Z,5.42
2019-03-19T17:28:04.780Z,4.45
2019-03-19T17:30:38.750Z,3.60
2019-03-19T17:33:08.301Z,4.47
2019-03-19T17:35:37.815Z,4.15
2019-03-19T17:38:08.934Z,4.90
2019-03-19T17:40:41.502Z,6.62
2019-03-19T17:43:10.206Z,6.28
2019-03-19T17:45:39.786Z,6.78
2019-03-19T17:48:16.017Z,6.12
2019-03-19T17:50:44.342Z,6.10
2019-03-19T17:53:13.851Z,6.83
2019-03-19T17:55:43.374Z,5.55
2019-03-19T17:58:12.861Z,5.17
2019-03-19T18:00:44.049Z,5.83
2019-03-19T18:03:13.579Z,5.58
2019-03-19T18:05:43.133Z,5.35
2019-03-19T18:08:12.618Z,8.05
2019-03-19T18:10:42.142Z,8.35
2019-03-19T18:13:11.638Z,7.92
2019-03-19T18:15:41.261Z,10.10
2019-03-19T18:18:10.752Z,12.70
2019-03-19T18:20:40.326Z,9.88
2019-03-19T18:23:09.879Z,8.58
2019-03-19T18:25:39.453Z,9.75
2019-03-19T18:28:08.939Z,10.60
2019-03-19T18:30:38.491Z,12.73
2019-03-19T18:33:08.100Z,11.10
2019-03-19T18:35:37.641Z,9.45
2019-03-19T18:38:07.380Z,10.18
2019-03-19T18:40:36.883Z,10.28
2019-03-19T18:43:06.452Z,10.85
2019-03-19T18:45:35.933Z,10.00
2019-03-19T18:48:05.857Z,10.48
2019-03-19T18:50:35.429Z,8.93
2019-03-19T18:53:05.793Z,10.30
2019-03-19T18:55:35.313Z,7.60
2019-03-19T18:58:04.966Z,8.45
2019-03-19T19:00:34.479Z,8.90
2019-03-19T19:03:04.108Z,8.23
2019-03-19T19:05:33.655Z,7.20
2019-03-19T19:08:03.242Z,9.00
2019-03-19T19:10:32.758Z,9.20
2019-03-19T19:13:02.294Z,8.50
2019-03-19T19:15:31.790Z,9.35
2019-03-19T19:18:01.402Z,9.68
2019-03-19T19:20:30.960Z,8.73
2019-03-19T19:23:02.778Z,9.43
2019-03-19T19:25:31.731Z,8.10
2019-03-19T19:28:02.860Z,8.80
2019-03-19T19:30:33.359Z,9.05
2019-03-19T19:33:02.979Z,9.65
2019-03-19T19:35:32.584Z,7.78
2019-03-19T19:38:03.370Z,9.53
2019-03-19T19:40:33.418Z,13.32
2019-03-19T19:43:03.019Z,11.40
2019-03-19T19:45:32.509Z,10.05
2019-03-19T19:48:02.028Z,10.70
2019-03-19T19:50:31.521Z,10.93
2019-03-19T19:53:02.903Z,10.58
2019-03-19T19:55:32.397Z,11.43
2019-03-19T19:58:02.021Z,9.33
2019-03-19T20:00:31.523Z,9.18
2019-03-19T20:03:11.551Z,7.95
2019-03-19T20:05:34.234Z,8.73
2019-03-19T20:08:03.796Z,11.35
2019-03-19T20:10:33.439Z,13.93
2019-03-19T20:13:03.999Z,14.03
2019-03-19T20:15:33.594Z,10.88
2019-03-19T20:18:03.109Z,10.98
2019-03-19T20:20:36.251Z,10.72
2019-03-19T20:23:05.948Z,11.60
2019-03-19T20:25:35.526Z,10.75
2019-03-19T20:28:05.982Z,10.05
2019-03-19T20:30:35.629Z,11.40
2019-03-19T20:33:05.536Z,10.05
2019-03-19T20:35:35.014Z,11.00
2019-03-19T20:38:04.688Z,13.15
2019-03-19T20:40:34.229Z,12.40
2019-03-19T20:43:03.703Z,10.50
2019-03-19T20:45:33.226Z,11.97
2019-03-19T20:48:02.766Z,11.80
2019-03-19T20:50:37.700Z,11.33
2019-03-19T20:53:07.295Z,10.93
2019-03-19T20:55:37.362Z,11.73
2019-03-19T20:58:07.685Z,10.20
2019-03-19T21:00:37.230Z,11.22
2019-03-19T21:03:06.770Z,11.55
2019-03-19T21:05:36.286Z,9.00
2019-03-19T21:08:05.960Z,9.65
2019-03-19T21:10:35.462Z,10.58
2019-03-19T21:13:05.039Z,9.25
2019-03-19T21:15:34.524Z,8.20
2019-03-19T21:18:04.242Z,8.55
2019-03-19T21:20:33.817Z,9.13
2019-03-19T21:23:03.320Z,7.97
2019-03-19T21:25:32.829Z,9.98
2019-03-19T21:28:13.253Z,9.13
2019-03-19T21:30:33.652Z,9.35
2019-03-19T21:33:03.191Z,10.32
2019-03-19T21:35:32.687Z,12.18
2019-03-19T21:38:02.363Z,10.55
2019-03-19T21:40:31.881Z,9.83
2019-03-19T21:43:03.098Z,10.53
2019-03-19T21:45:32.600Z,9.13
2019-03-19T21:48:02.119Z,9.03
2019-03-19T21:50:31.600Z,11.78
2019-03-19T21:53:01.118Z,9.63
2019-03-19T21:55:30.711Z,7.62
2019-03-19T21:58:00.306Z,8.95
2019-03-19T22:00:29.881Z,8.30
2019-03-19T22:02:59.382Z,9.25
2019-03-19T22:05:28.888Z,9.90
2019-03-19T22:07:58.371Z,11.00
2019-03-19T22:10:27.868Z,7.58
2019-03-19T22:12:57.381Z,6.47
2019-03-19T22:15:27.194Z,6.50
2019-03-19T22:17:56.738Z,6.78
2019-03-19T22:20:26.254Z,5.83
2019-03-19T22:22:55.859Z,5.95
2019-03-19T22:25:25.348Z,6.05
2019-03-19T22:27:54.847Z,7.12
2019-03-19T22:30:24.485Z,6.15
2019-03-19T22:32:54.015Z,6.90
2019-03-19T22:35:23.593Z,5.05
2019-03-19T22:37:53.091Z,6.78
2019-03-19T22:40:22.719Z,5.25
2019-03-19T22:42:52.215Z,5.40
2019-03-19T22:45:21.775Z,6.03
2019-03-19T22:47:51.278Z,4.42
2019-03-19T22:50:20.855Z,5.85
2019-03-19T22:52:50.352Z,5.78
2019-03-19T22:55:28.722Z,5.42
2019-03-19T22:57:51.223Z,5.78
2019-03-19T23:00:38.103Z,6.78
2019-03-19T23:03:08.497Z,6.08
2019-03-19T23:05:38.285Z,6.30
2019-03-19T23:08:07.904Z,5.00
2019-03-19T23:10:37.459Z,7.92
2019-03-19T23:13:07.018Z,6.50
2019-03-19T23:15:36.647Z,5.90
2019-03-19T23:18:06.181Z,6.67
2019-03-19T23:20:36.025Z,6.42
2019-03-19T23:23:06.051Z,6.85
2019-03-19T23:25:35.597Z,4.83
2019-03-19T23:28:05.552Z,4.90
2019-03-19T23:30:35.025Z,5.22
2019-03-19T23:33:05.952Z,4.85
2019-03-19T23:35:35.509Z,5.12
2019-03-19T23:38:05.176Z,4.78
2019-03-19T23:40:34.675Z,4.87
2019-03-19T23:43:04.325Z,4.30
2019-03-19T23:45:33.838Z,4.72
2019-03-19T23:48:03.316Z,4.65
2019-03-19T23:50:32.901Z,4.10
2019-03-19T23:53:02.374Z,5.20
2019-03-19T23:55:31.899Z,4.08
2019-03-19T23:58:01.379Z,4.90
